Terminal Aerodrome Forecast
Issued by NWS Boise, ID

Home | Current Version | Previous Version | Text Only | Print | Product List | Glossary On
Versions: 1 2 3 4 5 6 7 8 9 10 11 12 13 14 15 16 17 18 19 20 21 22 23 24 25 26 27 28 29 30 31 32 33 34 35 36
000
FTUS45 KBOI 250625 AAA
TAFBNO
TAF AMD
KBNO 250625Z 2506/2606 29010G20KT 3SM -SHSN BR BKN025 OVC040
     FM250700 26012KT P6SM VCSH SCT025 BKN040
     FM251700 28018G28KT P6SM SCT070
     FM260100 29010KT P6SM BKN200=

USA.gov is the U.S. government's official web portal to all federal, state and local government web resources and services.